Terminal Aerodrome Forecast
Issued by NWS Central Illinois

Home | Current Version | Previous Version | Text Only | Print | Product List | Glossary On
Versions: 1 2 3 4 5 6 7 8 9 10 11 12 13 14 15
214
FTUS43 KILX 210520
TAFPIA
TAF
KPIA 210520Z 2106/2206 17012KT P6SM BKN250 WS015/20040KT
     FM211400 18013G18KT P6SM SCT150 BKN250
     FM211800 18015G25KT P6SM SCT100 BKN250
     FM220200 17012G17KT P6SM VCSH BKN050 OVC100=

USA.gov is the U.S. government's official web portal to all federal, state and local government web resources and services.